Time;durP1;ratioP1;P1;durP2;ratioP2;P2;SDS_P1;SDS_P2;PMS_P1;PMS_P2;Temp;Humidity;BMP_temperature;BMP_pressure;BME280_temperature;BME280_humidity;BME280_pressure;Samples;Min_cycle;Max_cycle;Signal;HPM_P1;HPM_P2
2024/03/30 00:01:50;;;;;;;9.93;5.60;;;8.40;99.90;;;;;;5012010;28;20084;-80
2024/03/30 00:04:16;;;;;;;11.77;6.13;;;8.40;99.90;;;;;;5012373;28;20022;-79
2024/03/30 00:06:42;;;;;;;11.70;5.90;;;8.30;99.90;;;;;;4994641;28;20048;-80
2024/03/30 00:09:07;;;;;;;12.70;7.47;;;8.30;99.90;;;;;;5011746;28;20037;-80
2024/03/30 00:11:33;;;;;;;22.77;12.18;;;8.20;99.90;;;;;;4994062;28;20253;-81
2024/03/30 00:13:59;;;;;;;12.40;7.32;;;8.20;99.90;;;;;;4993566;28;20036;-81
2024/03/30 00:16:24;;;;;;;16.02;8.00;;;8.10;99.90;;;;;;5012135;28;20042;-80
2024/03/30 00:18:53;;;;;;;13.75;7.57;;;8.10;99.90;;;;;;5011217;28;20073;-80
2024/03/30 00:21:19;;;;;;;15.82;10.18;;;8.00;99.90;;;;;;4994364;28;20503;-81
2024/03/30 00:23:44;;;;;;;24.70;14.57;;;7.90;99.90;;;;;;4993703;28;20044;-81
2024/03/30 00:26:10;;;;;;;16.02;6.78;;;7.90;99.90;;;;;;4994022;28;20025;-81
2024/03/30 00:28:36;;;;;;;15.73;7.40;;;7.90;99.90;;;;;;5011784;28;20068;-81
2024/03/30 00:31:02;;;;;;;13.13;7.60;;;7.80;99.90;;;;;;4994243;28;20040;-81
2024/03/30 00:33:27;;;;;;;13.35;6.93;;;7.80;99.90;;;;;;4993459;28;20034;-81
2024/03/30 00:35:57;;;;;;;14.77;7.85;;;7.80;99.90;;;;;;4994286;28;20036;-81
2024/03/30 00:38:24;;;;;;;17.35;8.85;;;7.80;99.90;;;;;;4993746;28;20033;-81
2024/03/30 00:40:50;;;;;;;18.63;8.85;;;7.70;99.90;;;;;;4993742;28;20026;-81
2024/03/30 00:43:16;;;;;;;16.85;10.43;;;7.60;99.90;;;;;;4994108;28;20487;-81
2024/03/30 00:45:47;;;;;;;17.27;8.40;;;7.60;99.90;;;;;;5011695;28;20057;-81
2024/03/30 00:48:13;;;;;;;11.40;7.07;;;7.50;99.90;;;;;;4993456;28;20026;-81
2024/03/30 00:50:39;;;;;;;12.95;6.25;;;7.50;99.90;;;;;;4993962;28;20030;-81
2024/03/30 00:53:05;;;;;;;17.15;7.07;;;7.50;99.90;;;;;;4993684;28;20030;-81
2024/03/30 00:55:31;;;;;;;11.18;6.07;;;7.40;99.90;;;;;;5011996;28;20026;-82
2024/03/30 00:57:57;;;;;;;12.25;5.15;;;7.50;99.90;;;;;;5011104;28;20034;-81
2024/03/30 01:00:23;;;;;;;10.23;6.97;;;7.30;99.90;;;;;;5011295;28;20034;-82
2024/03/30 01:02:49;;;;;;;14.75;6.47;;;7.30;99.90;;;;;;4993655;28;20053;-82
2024/03/30 01:05:15;;;;;;;12.90;6.88;;;7.30;99.90;;;;;;4993544;28;20033;-81
2024/03/30 01:07:41;;;;;;;30.95;12.25;;;7.30;99.90;;;;;;4993052;28;20033;-81
2024/03/30 01:10:08;;;;;;;22.35;10.35;;;7.20;99.90;;;;;;5011202;28;20026;-81
2024/03/30 01:12:34;;;;;;;25.58;10.15;;;7.20;99.90;;;;;;4993389;28;20391;-81
2024/03/30 01:15:00;;;;;;;24.20;11.70;;;7.10;99.90;;;;;;5009870;28;20184;-81
2024/03/30 01:17:26;;;;;;;23.98;9.45;;;7.10;99.90;;;;;;5010808;28;20616;-81
2024/03/30 01:19:52;;;;;;;18.88;8.88;;;7.00;99.90;;;;;;4993364;28;20036;-80
2024/03/30 01:22:18;;;;;;;22.02;9.90;;;6.90;99.90;;;;;;5011137;28;20033;-80
2024/03/30 01:24:45;;;;;;;25.90;10.88;;;6.90;99.90;;;;;;4993043;28;20036;-81
2024/03/30 01:27:18;;;;;;;26.05;10.90;;;6.80;99.90;;;;;;5011115;28;20124;-81
2024/03/30 01:29:44;;;;;;;20.58;8.30;;;6.80;99.90;;;;;;5010741;28;20120;-81
2024/03/30 01:32:11;;;;;;;12.35;6.75;;;6.80;99.90;;;;;;5011125;28;20042;-81
2024/03/30 01:34:37;;;;;;;23.58;9.90;;;6.80;99.90;;;;;;4993751;28;20030;-80
2024/03/30 01:37:03;;;;;;;15.52;8.23;;;6.90;99.90;;;;;;5010924;28;20133;-81
2024/03/30 01:39:29;;;;;;;15.32;9.23;;;6.90;99.90;;;;;;4992649;28;20030;-81
2024/03/30 01:41:54;;;;;;;21.25;10.27;;;6.80;99.90;;;;;;4993506;28;20038;-81
2024/03/30 01:44:20;;;;;;;28.63;13.57;;;6.80;99.90;;;;;;5010440;28;20089;-81
2024/03/30 01:46:49;;;;;;;24.67;13.25;;;6.70;99.90;;;;;;5010356;28;20026;-82
2024/03/30 01:49:17;;;;;;;18.95;11.18;;;6.70;99.90;;;;;;4980844;28;20030;-80
2024/03/30 01:51:44;;;;;;;20.63;9.98;;;6.60;99.90;;;;;;4993457;28;20057;-81
2024/03/30 01:54:11;;;;;;;23.25;8.93;;;6.60;99.90;;;;;;4992455;28;20488;-81
2024/03/30 01:56:37;;;;;;;13.38;7.22;;;6.60;99.90;;;;;;4993264;28;20144;-81
2024/03/30 01:59:04;;;;;;;12.88;6.20;;;6.70;99.90;;;;;;4992766;28;20022;-81
2024/03/30 02:01:30;;;;;;;17.92;7.47;;;6.80;99.90;;;;;;4993515;28;20014;-80
2024/03/30 02:03:58;;;;;;;18.70;9.35;;;6.80;99.90;;;;;;5010532;28;20022;-81
2024/03/30 02:06:27;;;;;;;19.77;9.63;;;6.80;99.90;;;;;;4993084;28;20037;-81
2024/03/30 02:08:56;;;;;;;36.55;18.13;;;6.70;99.90;;;;;;5010568;28;20042;-81
2024/03/30 02:11:22;;;;;;;19.42;10.18;;;6.60;99.90;;;;;;5010585;28;20045;-81
2024/03/30 02:13:48;;;;;;;63.15;23.70;;;6.70;99.90;;;;;;4992720;28;20072;-80
2024/03/30 02:16:14;;;;;;;15.98;5.90;;;6.80;99.90;;;;;;4996097;28;20042;-81
2024/03/30 02:18:40;;;;;;;9.77;4.93;;;6.90;99.90;;;;;;5013965;28;20025;-81
2024/03/30 02:21:06;;;;;;;10.52;4.97;;;7.10;99.90;;;;;;5014042;28;20480;-81
2024/03/30 02:23:32;;;;;;;14.27;5.55;;;7.20;99.90;;;;;;5013882;28;20029;-81
2024/03/30 02:25:58;;;;;;;13.70;7.75;;;7.30;99.90;;;;;;5013867;28;20489;-81
2024/03/30 02:28:25;;;;;;;25.05;11.60;;;7.40;99.90;;;;;;5014273;28;20053;-82
2024/03/30 02:30:51;;;;;;;11.43;6.35;;;7.40;99.90;;;;;;5013912;28;20050;-82
2024/03/30 02:33:17;;;;;;;10.85;5.22;;;7.40;99.90;;;;;;5013712;28;20080;-82
2024/03/30 02:35:43;;;;;;;16.35;6.32;;;7.40;99.90;;;;;;5013961;28;20153;-81
2024/03/30 02:38:08;;;;;;;17.77;6.90;;;7.50;99.90;;;;;;4995816;28;20481;-82
2024/03/30 02:40:34;;;;;;;25.88;12.30;;;7.50;99.90;;;;;;4996731;28;20026;-81
2024/03/30 02:42:59;;;;;;;13.18;4.85;;;7.60;99.90;;;;;;4995923;28;20033;-81
2024/03/30 02:45:25;;;;;;;11.23;5.55;;;7.60;99.90;;;;;;5013738;28;20483;-80
2024/03/30 02:47:51;;;;;;;9.35;5.85;;;7.60;99.90;;;;;;5013447;28;20117;-80
2024/03/30 02:50:16;;;;;;;11.20;5.50;;;7.50;99.90;;;;;;4996032;28;20042;-81
2024/03/30 02:52:42;;;;;;;13.35;5.25;;;7.50;99.90;;;;;;5013442;28;20080;-81
2024/03/30 02:55:08;;;;;;;9.02;4.47;;;7.60;99.90;;;;;;5013641;28;20578;-82
2024/03/30 02:57:33;;;;;;;13.57;6.25;;;7.60;99.90;;;;;;4995640;28;20033;-81
2024/03/30 02:59:59;;;;;;;13.48;6.22;;;7.60;99.90;;;;;;4995860;28;20117;-81
2024/03/30 03:02:24;;;;;;;11.15;4.95;;;7.60;99.90;;;;;;4995479;28;20037;-81
2024/03/30 03:04:50;;;;;;;8.48;5.18;;;7.60;99.90;;;;;;5013435;28;20076;-81
2024/03/30 03:07:16;;;;;;;16.30;7.18;;;7.50;99.90;;;;;;4995727;28;20054;-81
2024/03/30 03:09:42;;;;;;;19.63;8.00;;;7.40;99.90;;;;;;4995736;28;20022;-80
2024/03/30 03:12:08;;;;;;;9.20;6.20;;;7.30;99.90;;;;;;4994944;28;20381;-81
2024/03/30 03:14:35;;;;;;;20.27;7.90;;;7.20;99.90;;;;;;5012977;28;20080;-81
2024/03/30 03:17:01;;;;;;;14.43;6.22;;;7.20;99.90;;;;;;4995239;28;20065;-81
2024/03/30 03:19:26;;;;;;;14.43;7.47;;;7.20;99.90;;;;;;4995981;28;20064;-81
2024/03/30 03:21:52;;;;;;;12.85;6.22;;;7.10;99.90;;;;;;5012849;28;20116;-81
2024/03/30 03:24:18;;;;;;;10.85;5.80;;;7.00;99.90;;;;;;4995096;28;20554;-81
2024/03/30 03:26:43;;;;;;;14.70;7.93;;;7.00;99.90;;;;;;4993824;28;20514;-81
2024/03/30 03:29:10;;;;;;;27.30;10.15;;;7.00;99.90;;;;;;4995282;28;20084;-81
2024/03/30 03:31:36;;;;;;;67.18;25.83;;;7.00;99.90;;;;;;4995164;28;20475;-80
2024/03/30 03:34:01;;;;;;;35.65;14.27;;;7.10;99.90;;;;;;5012890;28;20041;-80
2024/03/30 03:36:27;;;;;;;28.63;11.95;;;7.10;99.90;;;;;;4994684;28;20121;-80
2024/03/30 03:38:53;;;;;;;26.58;9.77;;;7.10;99.90;;;;;;5012728;28;20030;-80
2024/03/30 03:41:18;;;;;;;14.88;6.78;;;7.10;99.90;;;;;;5012384;28;20034;-80
2024/03/30 03:43:44;;;;;;;15.93;6.38;;;7.10;99.90;;;;;;5012505;28;20161;-81
2024/03/30 03:46:09;;;;;;;16.27;6.82;;;7.10;99.90;;;;;;5012656;28;20372;-80
2024/03/30 03:48:35;;;;;;;12.57;4.70;;;7.00;99.90;;;;;;5010600;28;20454;-80
2024/03/30 03:51:01;;;;;;;12.05;4.28;;;7.10;99.90;;;;;;5012244;28;20022;-81
2024/03/30 03:53:27;;;;;;;9.73;4.57;;;7.20;99.90;;;;;;4994240;28;20084;-80
2024/03/30 03:55:53;;;;;;;10.98;4.50;;;7.20;99.90;;;;;;4994380;28;20049;-80
2024/03/30 03:58:18;;;;;;;8.95;4.35;;;7.20;99.90;;;;;;4994843;28;20025;-80
2024/03/30 04:00:44;;;;;;;14.18;4.43;;;7.20;99.90;;;;;;4994825;28;20045;-81
2024/03/30 04:03:10;;;;;;;18.02;7.05;;;7.30;99.90;;;;;;5011837;28;20025;-81
2024/03/30 04:05:36;;;;;;;12.52;5.35;;;7.20;99.90;;;;;;4994491;28;20041;-81
2024/03/30 04:08:02;;;;;;;9.85;4.07;;;7.20;99.90;;;;;;4994175;28;20056;-80
2024/03/30 04:10:27;;;;;;;12.15;7.45;;;7.30;99.90;;;;;;4994772;28;20025;-80
2024/03/30 04:12:53;;;;;;;15.23;5.65;;;7.30;99.90;;;;;;4994428;28;20033;-81
2024/03/30 04:15:19;;;;;;;11.25;4.82;;;7.30;99.90;;;;;;5011554;28;20102;-81
2024/03/30 04:17:47;;;;;;;10.63;5.80;;;7.30;99.90;;;;;;4994111;28;20116;-81
2024/03/30 04:20:13;;;;;;;12.38;6.30;;;7.20;99.90;;;;;;4993739;28;20030;-82
2024/03/30 04:22:39;;;;;;;10.07;5.38;;;7.20;99.90;;;;;;4994031;28;20014;-81
2024/03/30 04:25:06;;;;;;;14.10;5.85;;;7.10;99.90;;;;;;4994329;28;20479;-82
2024/03/30 04:27:32;;;;;;;17.15;5.82;;;7.10;99.90;;;;;;5011427;28;20038;-82
2024/03/30 04:29:57;;;;;;;13.30;4.88;;;7.00;99.90;;;;;;4994030;28;20103;-82
2024/03/30 04:32:23;;;;;;;14.65;5.72;;;7.00;99.90;;;;;;5011499;28;20044;-82
2024/03/30 04:34:49;;;;;;;11.00;5.63;;;6.90;99.90;;;;;;4993525;28;20014;-82
2024/03/30 04:37:14;;;;;;;16.42;7.28;;;6.90;99.90;;;;;;4994032;28;20018;-82
2024/03/30 04:39:43;;;;;;;15.07;7.97;;;6.80;99.90;;;;;;4993831;28;20076;-82
2024/03/30 04:42:09;;;;;;;14.10;8.35;;;6.80;99.90;;;;;;5010824;28;20026;-82
2024/03/30 04:44:36;;;;;;;19.58;8.65;;;6.80;99.90;;;;;;4994119;28;20050;-81
2024/03/30 04:47:02;;;;;;;17.52;8.68;;;6.80;99.90;;;;;;5010597;28;20037;-82
2024/03/30 04:49:28;;;;;;;15.43;7.70;;;6.70;99.90;;;;;;4994287;28;20022;-82
2024/03/30 04:51:54;;;;;;;12.30;6.28;;;6.70;99.90;;;;;;4993778;28;20506;-81
2024/03/30 04:54:19;;;;;;;14.73;6.95;;;6.80;99.90;;;;;;4993430;28;20479;-81
2024/03/30 04:56:45;;;;;;;11.63;6.50;;;6.80;99.90;;;;;;4993384;28;20100;-81
2024/03/30 04:59:11;;;;;;;12.13;5.55;;;6.90;99.90;;;;;;5010998;28;20034;-81
2024/03/30 05:01:36;;;;;;;14.07;5.10;;;7.00;99.90;;;;;;5011631;28;20060;-81
2024/03/30 05:04:02;;;;;;;15.05;5.20;;;7.10;99.90;;;;;;4993610;28;20045;-81
2024/03/30 05:06:28;;;;;;;15.20;5.50;;;7.20;99.90;;;;;;4993381;28;20533;-81
2024/03/30 05:08:53;;;;;;;11.98;5.07;;;7.30;99.90;;;;;;4993307;28;20038;-81
2024/03/30 05:11:19;;;;;;;11.00;5.03;;;7.40;99.90;;;;;;4993281;28;20026;-81
2024/03/30 05:13:45;;;;;;;16.67;5.03;;;7.50;99.90;;;;;;5011258;28;20053;-81
2024/03/30 05:16:10;;;;;;;13.38;7.18;;;7.60;99.90;;;;;;4993553;28;20085;-80
2024/03/30 05:18:36;;;;;;;13.35;6.25;;;7.60;99.90;;;;;;4993687;28;20088;-81
2024/03/30 05:21:02;;;;;;;10.90;5.13;;;7.70;99.90;;;;;;5011194;28;20061;-81
2024/03/30 05:23:36;;;;;;;15.32;7.45;;;7.80;99.90;;;;;;5011108;28;20029;-80
2024/03/30 05:26:06;;;;;;;17.38;8.07;;;7.80;99.90;;;;;;4992363;28;20472;-81
2024/03/30 05:28:34;;;;;;;18.02;7.13;;;7.80;99.90;;;;;;4993577;28;20026;-81
2024/03/30 05:31:20;;;;;;;14.60;7.60;;;7.90;99.90;;;;;;4992642;28;20121;-83
2024/03/30 05:33:46;;;;;;;18.80;9.85;;;8.00;99.90;;;;;;4987275;28;20037;-81
2024/03/30 05:36:14;;;;;;;22.52;11.55;;;8.10;99.90;;;;;;4992786;28;20611;-80
2024/03/30 05:38:40;;;;;;;21.55;10.05;;;8.20;99.90;;;;;;4989745;28;20035;-81
2024/03/30 05:41:05;;;;;;;31.92;13.40;;;8.40;99.90;;;;;;4999619;28;20041;-81
2024/03/30 05:43:31;;;;;;;25.48;10.48;;;8.60;99.90;;;;;;4993583;28;20057;-80
2024/03/30 05:45:57;;;;;;;21.58;10.50;;;8.80;99.90;;;;;;4993536;28;20115;-81
2024/03/30 05:48:23;;;;;;;11.60;5.35;;;9.00;99.90;;;;;;4992656;28;20568;-81
2024/03/30 05:50:48;;;;;;;11.65;4.70;;;9.30;99.90;;;;;;4992112;28;20030;-80
2024/03/30 05:53:15;;;;;;;14.40;4.07;;;9.60;99.90;;;;;;5010841;28;20403;-81
2024/03/30 05:55:41;;;;;;;13.00;4.18;;;10.00;99.90;;;;;;5012128;28;20018;-80
2024/03/30 05:58:09;;;;;;;16.45;4.90;;;10.30;99.90;;;;;;4996517;28;20022;-80
2024/03/30 06:00:38;;;;;;;16.65;3.92;;;10.60;99.90;;;;;;4996860;28;20105;-80
2024/03/30 06:03:04;;;;;;;14.77;4.38;;;10.90;99.90;;;;;;4996381;28;20022;-80
2024/03/30 06:05:33;;;;;;;15.30;6.00;;;11.20;99.90;;;;;;5014373;28;20025;-81
2024/03/30 06:07:58;;;;;;;17.30;5.72;;;11.40;99.90;;;;;;4995633;28;20185;-80
2024/03/30 06:10:24;;;;;;;14.70;5.70;;;11.60;99.90;;;;;;4995391;28;20537;-79
2024/03/30 06:12:50;;;;;;;15.05;5.93;;;11.80;99.90;;;;;;5008377;28;20029;-79
2024/03/30 06:15:16;;;;;;;13.23;4.38;;;12.00;99.90;;;;;;4993996;28;20168;-80
2024/03/30 06:17:41;;;;;;;14.80;4.43;;;12.20;99.90;;;;;;5008495;28;20034;-79
2024/03/30 06:20:08;;;;;;;32.15;4.75;;;12.40;99.90;;;;;;5012727;28;20029;-80
2024/03/30 06:22:35;;;;;;;13.68;4.25;;;12.60;99.90;;;;;;5009537;28;20010;-80
2024/03/30 06:25:01;;;;;;;12.48;4.85;;;12.80;99.90;;;;;;4995974;28;20128;-80
2024/03/30 06:27:28;;;;;;;13.80;3.83;;;12.70;97.10;;;;;;4995638;28;20107;-80
2024/03/30 06:29:53;;;;;;;12.43;4.32;;;12.70;94.30;;;;;;5013851;28;20037;-81
2024/03/30 06:32:19;;;;;;;21.17;4.47;;;12.80;93.60;;;;;;5012476;28;20403;-81
2024/03/30 06:34:47;;;;;;;13.93;4.10;;;12.90;92.90;;;;;;4996375;28;20376;-82
2024/03/30 06:37:13;;;;;;;11.68;3.97;;;13.10;91.10;;;;;;4996754;28;20032;-82
2024/03/30 06:45:07;;;;;;;20.77;3.97;;;13.70;85.10;;;;;;5012114;28;20048;-82
2024/03/30 06:47:32;;;;;;;15.80;4.28;;;13.90;84.90;;;;;;5013626;28;20046;-81
2024/03/30 06:49:58;;;;;;;14.00;4.18;;;14.10;84.10;;;;;;4995735;28;20038;-80
2024/03/30 06:52:23;;;;;;;21.48;4.70;;;14.30;83.10;;;;;;5007687;28;20498;-78
2024/03/30 06:54:49;;;;;;;17.50;4.28;;;14.50;81.80;;;;;;4995821;28;20026;-78
2024/03/30 06:57:15;;;;;;;25.50;6.05;;;14.70;80.60;;;;;;4995332;28;20042;-79
2024/03/30 06:59:40;;;;;;;29.00;6.63;;;15.00;78.40;;;;;;4994876;28;20180;-78
2024/03/30 07:02:06;;;;;;;23.98;5.53;;;15.20;77.30;;;;;;4994859;28;20046;-78
2024/03/30 07:04:32;;;;;;;26.83;6.18;;;15.50;76.10;;;;;;4995539;28;20057;-80
2024/03/30 07:06:58;;;;;;;27.45;6.68;;;15.70;75.40;;;;;;4995078;28;20030;-79
2024/03/30 07:09:23;;;;;;;20.70;5.20;;;15.80;74.70;;;;;;4995337;28;20029;-79
2024/03/30 07:11:49;;;;;;;22.70;5.60;;;16.00;73.70;;;;;;5012863;28;20491;-81
2024/03/30 07:14:15;;;;;;;23.67;5.75;;;16.20;72.30;;;;;;4995338;28;20113;-81
2024/03/30 07:16:40;;;;;;;17.80;4.68;;;16.30;71.20;;;;;;4995400;28;20042;-81
2024/03/30 07:19:06;;;;;;;25.40;6.38;;;16.50;71.00;;;;;;4995661;28;20057;-81
2024/03/30 07:21:31;;;;;;;24.58;5.72;;;16.70;71.00;;;;;;4995696;28;20033;-81
2024/03/30 07:23:57;;;;;;;22.58;5.13;;;16.80;69.50;;;;;;4995207;28;20317;-81
2024/03/30 07:26:23;;;;;;;30.98;7.07;;;17.00;69.60;;;;;;4995263;28;20046;-81
2024/03/30 07:28:48;;;;;;;28.77;6.13;;;17.10;69.40;;;;;;4994827;28;20026;-81
2024/03/30 07:31:14;;;;;;;34.08;5.72;;;17.20;68.00;;;;;;4995433;28;20056;-80
2024/03/30 07:33:39;;;;;;;23.13;5.82;;;17.20;65.60;;;;;;4995111;28;20077;-80
2024/03/30 07:36:05;;;;;;;26.40;7.55;;;17.30;65.60;;;;;;4993418;28;20033;-80
2024/03/30 07:38:32;;;;;;;26.75;4.85;;;17.40;65.60;;;;;;5011686;28;20026;-81
2024/03/30 07:40:59;;;;;;;22.02;5.00;;;17.50;64.60;;;;;;4993973;28;20088;-78
2024/03/30 07:43:25;;;;;;;31.27;6.70;;;17.60;64.00;;;;;;5012239;28;20014;-78
2024/03/30 07:45:51;;;;;;;32.33;6.88;;;17.60;63.90;;;;;;4993661;28;20375;-77
2024/03/30 07:48:17;;;;;;;21.75;5.60;;;17.70;63.70;;;;;;5009264;28;20128;-77
2024/03/30 07:50:43;;;;;;;29.98;6.40;;;17.80;62.60;;;;;;4994754;28;20129;-77
2024/03/30 07:53:08;;;;;;;38.20;6.55;;;17.90;62.50;;;;;;4994658;28;20029;-78
2024/03/30 07:55:35;;;;;;;36.85;6.97;;;18.00;61.80;;;;;;5012812;28;20064;-78
2024/03/30 07:58:00;;;;;;;31.25;6.00;;;18.10;61.90;;;;;;4993855;28;20041;-78
2024/03/30 08:00:26;;;;;;;28.17;6.60;;;18.20;61.40;;;;;;4992543;28;20035;-77
2024/03/30 08:02:59;;;;;;;25.27;5.55;;;18.30;61.40;;;;;;4991027;28;20030;-78
2024/03/30 08:05:25;;;;;;;28.42;6.20;;;18.40;60.60;;;;;;4989905;28;20019;-78
2024/03/30 08:07:51;;;;;;;38.33;6.38;;;18.40;61.10;;;;;;4989119;28;20129;-77
2024/03/30 08:10:17;;;;;;;35.70;6.88;;;18.40;60.00;;;;;;4992443;28;20026;-79
2024/03/30 08:12:43;;;;;;;30.10;7.75;;;18.60;60.90;;;;;;5009378;28;20506;-78
2024/03/30 08:15:10;;;;;;;37.47;6.97;;;18.60;59.40;;;;;;5011029;28;20022;-79
2024/03/30 08:17:35;;;;;;;30.80;5.45;;;18.80;59.40;;;;;;5010590;28;20042;-79
2024/03/30 08:20:01;;;;;;;28.70;6.82;;;18.90;59.00;;;;;;4993972;28;20026;-77
2024/03/30 08:22:27;;;;;;;38.33;6.07;;;19.00;58.90;;;;;;4993278;28;20009;-78
2024/03/30 08:24:52;;;;;;;31.63;6.55;;;19.10;57.00;;;;;;4994758;28;20506;-78
2024/03/30 08:27:18;;;;;;;33.20;7.28;;;19.20;57.90;;;;;;5003510;28;20033;-78
2024/03/30 08:29:44;;;;;;;44.70;7.35;;;19.30;57.30;;;;;;4995848;28;20054;-78
2024/03/30 08:32:10;;;;;;;35.08;6.55;;;19.40;57.20;;;;;;5001901;28;20511;-77
2024/03/30 08:34:36;;;;;;;40.25;7.50;;;19.40;56.80;;;;;;4990572;28;20023;-78
2024/03/30 08:37:01;;;;;;;46.92;9.20;;;19.50;56.50;;;;;;4989529;28;20034;-78
2024/03/30 08:39:27;;;;;;;42.53;7.82;;;19.60;55.40;;;;;;4990065;28;20029;-79
2024/03/30 08:41:53;;;;;;;35.63;6.97;;;19.70;56.80;;;;;;4990579;28;20109;-79
2024/03/30 08:44:19;;;;;;;36.55;7.43;;;19.70;54.40;;;;;;4989399;28;20550;-79
2024/03/30 08:46:45;;;;;;;39.47;8.27;;;19.70;55.00;;;;;;4990507;28;20021;-79
2024/03/30 08:49:12;;;;;;;38.28;8.25;;;19.80;54.30;;;;;;5005732;28;20030;-78
2024/03/30 08:51:38;;;;;;;31.23;5.72;;;19.90;55.10;;;;;;4998671;28;20060;-79
2024/03/30 08:54:08;;;;;;;42.03;8.93;;;20.00;54.70;;;;;;4990825;28;20392;-79
2024/03/30 08:56:35;;;;;;;49.45;10.57;;;20.00;54.20;;;;;;5000827;28;20029;-79
2024/03/30 08:59:01;;;;;;;41.00;8.95;;;20.10;54.00;;;;;;4992972;28;20065;-78
2024/03/30 09:01:28;;;;;;;34.33;7.43;;;20.10;53.80;;;;;;4990069;28;20064;-78
2024/03/30 09:03:54;;;;;;;30.60;6.78;;;20.20;54.50;;;;;;5003251;28;20464;-78
2024/03/30 09:06:19;;;;;;;30.27;7.20;;;20.30;53.70;;;;;;5011797;28;20109;-78
2024/03/30 09:08:45;;;;;;;48.05;8.52;;;20.40;53.80;;;;;;4992941;28;20053;-79
2024/03/30 09:11:11;;;;;;;45.05;7.30;;;20.40;53.20;;;;;;5010661;28;20022;-78
2024/03/30 09:13:38;;;;;;;37.10;7.22;;;20.50;52.60;;;;;;4976327;28;20049;-79
2024/03/30 09:16:04;;;;;;;44.08;7.75;;;20.60;52.70;;;;;;4997066;28;20134;-77
2024/03/30 09:18:30;;;;;;;41.75;8.05;;;20.70;53.20;;;;;;4996695;28;20508;-75
2024/03/30 09:20:58;;;;;;;48.85;7.30;;;20.80;53.10;;;;;;5001184;28;20038;-77
2024/03/30 09:23:26;;;;;;;45.22;9.70;;;20.80;52.20;;;;;;4992819;28;20057;-77
2024/03/30 09:25:53;;;;;;;33.92;7.43;;;20.80;51.60;;;;;;4983554;28;20064;-77
2024/03/30 09:28:18;;;;;;;40.90;8.18;;;20.90;51.50;;;;;;5009181;28;20042;-77
2024/03/30 09:30:44;;;;;;;36.15;8.27;;;20.90;52.10;;;;;;5011182;28;20096;-78
2024/03/30 09:33:10;;;;;;;42.55;9.15;;;21.00;52.40;;;;;;5009794;28;20566;-76
2024/03/30 09:35:39;;;;;;;54.03;9.48;;;21.10;51.00;;;;;;4989672;28;20032;-76
2024/03/30 09:38:05;;;;;;;34.55;7.45;;;21.20;51.30;;;;;;4984544;28;20041;-77
2024/03/30 09:40:33;;;;;;;52.63;9.02;;;21.30;51.80;;;;;;4997812;28;20113;-77
2024/03/30 09:43:00;;;;;;;56.85;8.77;;;21.30;51.40;;;;;;4994344;28;20515;-77
2024/03/30 09:45:29;;;;;;;49.95;9.55;;;21.40;51.20;;;;;;5009619;28;20038;-80
2024/03/30 09:48:00;;;;;;;46.15;8.43;;;21.40;51.00;;;;;;4996176;28;20488;-79
2024/03/30 09:50:27;;;;;;;52.57;9.23;;;21.50;52.00;;;;;;4994798;28;20050;-80
2024/03/30 09:52:54;;;;;;;43.53;8.80;;;21.60;51.20;;;;;;5013397;28;20817;-80
2024/03/30 09:55:20;;;;;;;47.35;7.90;;;21.60;51.20;;;;;;5000470;28;20410;-79
2024/03/30 09:57:48;;;;;;;48.15;7.95;;;21.60;50.50;;;;;;4996611;28;20030;-80
2024/03/30 10:00:15;;;;;;;58.92;9.80;;;21.70;51.30;;;;;;4996109;28;20030;-80
2024/03/30 10:02:41;;;;;;;56.90;10.27;;;21.70;50.20;;;;;;4996785;28;20022;-79
2024/03/30 10:05:09;;;;;;;57.95;9.48;;;21.70;49.50;;;;;;5014433;28;20716;-79
2024/03/30 10:07:42;;;;;;;61.63;11.65;;;21.80;49.90;;;;;;4996838;28;20487;-81
2024/03/30 10:10:11;;;;;;;58.20;11.88;;;21.90;49.40;;;;;;5014382;28;20034;-79
2024/03/30 10:12:45;;;;;;;76.03;15.02;;;22.00;48.00;;;;;;4996431;28;20033;-80
2024/03/30 10:15:18;;;;;;;65.75;13.02;;;22.10;48.00;;;;;;4996477;28;20036;-80
2024/03/30 10:17:43;;;;;;;76.25;12.98;;;22.00;47.30;;;;;;5006972;28;20064;-80
2024/03/30 10:20:10;;;;;;;59.92;11.77;;;22.10;47.90;;;;;;4998887;28;20499;-79
2024/03/30 10:22:36;;;;;;;85.43;14.27;;;22.00;48.40;;;;;;4996945;28;20037;-80
2024/03/30 10:25:02;;;;;;;77.13;16.15;;;22.00;46.30;;;;;;4996012;28;20018;-81
2024/03/30 10:27:28;;;;;;;84.78;20.05;;;21.90;46.40;;;;;;4997237;28;20034;-82
2024/03/30 10:29:53;;;;;;;99.47;32.13;;;21.80;45.50;;;;;;5013491;28;20056;-80
2024/03/30 10:32:19;;;;;;;65.85;15.55;;;21.90;46.70;;;;;;4995624;28;20030;-80
2024/03/30 10:34:46;;;;;;;59.90;11.52;;;21.90;46.90;;;;;;5012376;28;20034;-81
2024/03/30 10:37:12;;;;;;;70.50;14.20;;;21.90;46.80;;;;;;4995208;28;20022;-81
2024/03/30 10:39:39;;;;;;;67.22;13.88;;;21.90;46.80;;;;;;4996570;28;20041;-81
2024/03/30 10:42:05;;;;;;;70.85;13.65;;;22.00;47.40;;;;;;4994714;28;20022;-81
2024/03/30 10:44:31;;;;;;;70.85;15.43;;;22.20;47.30;;;;;;4996080;28;20030;-80
2024/03/30 10:46:57;;;;;;;75.03;13.70;;;22.10;45.80;;;;;;5012932;28;20072;-81
2024/03/30 10:49:24;;;;;;;58.13;12.48;;;22.10;45.80;;;;;;5013578;28;20041;-80
2024/03/30 10:51:54;;;;;;;63.10;10.30;;;22.20;45.30;;;;;;5013146;28;20041;-81
2024/03/30 10:54:20;;;;;;;68.55;12.70;;;22.30;44.70;;;;;;4995758;28;20125;-81
2024/03/30 10:56:47;;;;;;;59.92;12.50;;;22.40;44.80;;;;;;5017644;28;20030;-81
2024/03/30 10:59:16;;;;;;;68.93;14.05;;;22.40;45.00;;;;;;4995272;28;20036;-81
2024/03/30 11:01:42;;;;;;;61.60;12.25;;;22.50;44.10;;;;;;4995597;28;20113;-80
2024/03/30 11:04:11;;;;;;;84.57;15.52;;;22.50;43.60;;;;;;5013570;28;20049;-80
2024/03/30 11:06:37;;;;;;;93.70;20.98;;;22.50;43.20;;;;;;4995304;28;20149;-81
2024/03/30 11:09:04;;;;;;;89.60;21.25;;;22.60;42.80;;;;;;4995353;28;20556;-80
2024/03/30 11:11:30;;;;;;;89.90;27.33;;;22.80;43.30;;;;;;5002041;28;20474;-80
2024/03/30 11:13:56;;;;;;;68.13;14.70;;;22.90;42.30;;;;;;4995166;28;20026;-80
2024/03/30 11:16:22;;;;;;;66.25;14.63;;;23.00;42.30;;;;;;4993888;28;20046;-80
2024/03/30 11:19:23;;;;;;;69.82;14.18;;;23.00;41.80;;;;;;5005530;28;20061;-80
2024/03/30 11:22:10;;;;;;;57.47;10.57;;;23.00;40.10;;;;;;4994614;28;20030;-80
2024/03/30 11:24:41;;;;;;;65.47;10.30;;;22.90;40.20;;;;;;4991875;28;20557;-81
2024/03/30 11:27:11;;;;;;;58.83;10.85;;;22.90;40.30;;;;;;4985892;28;20054;-80
2024/03/30 11:29:47;;;;;;;55.53;10.60;;;23.00;41.50;;;;;;4994899;28;20026;-80
2024/03/30 11:32:19;;;;;;;61.47;10.40;;;23.10;42.70;;;;;;4995073;28;20542;-80
2024/03/30 11:35:01;;;;;;;57.30;11.43;;;23.20;40.70;;;;;;5013012;28;20033;-79
2024/03/30 11:37:28;;;;;;;59.22;8.93;;;23.30;39.40;;;;;;5012993;28;20024;-79
2024/03/30 11:40:15;;;;;;;52.17;10.00;;;23.40;39.80;;;;;;4998760;28;20045;-81
2024/03/30 11:42:46;;;;;;;59.25;11.05;;;23.50;39.80;;;;;;4997686;28;20030;-80
2024/03/30 11:45:22;;;;;;;54.80;10.80;;;23.70;40.20;;;;;;5007359;28;20559;-80
2024/03/30 11:47:48;;;;;;;42.15;8.20;;;23.70;39.70;;;;;;4993700;28;20073;-80
2024/03/30 11:50:15;;;;;;;62.92;10.90;;;23.60;40.00;;;;;;4992871;28;20037;-80
2024/03/30 11:52:48;;;;;;;45.03;9.55;;;23.30;38.90;;;;;;5012320;28;20472;-80
2024/03/30 11:55:28;;;;;;;51.35;9.98;;;23.40;39.40;;;;;;4995055;28;20057;-80
2024/03/30 11:57:54;;;;;;;52.15;9.55;;;23.50;39.30;;;;;;4978128;28;20034;-80
2024/03/30 12:00:20;;;;;;;52.08;10.23;;;23.70;39.30;;;;;;5010871;28;20148;-80
2024/03/30 12:02:49;;;;;;;49.15;9.85;;;23.70;39.30;;;;;;4991776;28;20040;-81
2024/03/30 12:05:29;;;;;;;47.05;11.15;;;23.90;39.20;;;;;;5011981;28;20029;-80
2024/03/30 12:07:58;;;;;;;54.28;12.23;;;23.90;38.60;;;;;;5010728;28;20100;-80
2024/03/30 12:10:26;;;;;;;39.40;8.52;;;23.90;38.40;;;;;;5011825;28;20597;-81
2024/03/30 12:12:58;;;;;;;45.88;8.65;;;23.90;39.10;;;;;;5011803;28;20040;-80
2024/03/30 12:15:28;;;;;;;53.47;9.30;;;23.50;38.20;;;;;;4993020;28;20084;-81
2024/03/30 12:17:55;;;;;;;43.00;8.85;;;23.20;38.70;;;;;;5011529;28;20124;-81
2024/03/30 12:20:20;;;;;;;62.75;10.00;;;23.20;39.10;;;;;;5011358;28;20104;-81
2024/03/30 12:22:46;;;;;;;60.47;10.20;;;23.30;39.60;;;;;;4993845;28;20034;-80
2024/03/30 12:25:14;;;;;;;52.97;10.13;;;23.50;39.40;;;;;;5010992;28;20033;-80
2024/03/30 12:27:43;;;;;;;56.83;10.40;;;23.70;39.80;;;;;;4993374;28;20100;-80
2024/03/30 12:30:09;;;;;;;57.25;11.32;;;23.90;39.30;;;;;;5011152;28;20137;-79
2024/03/30 12:32:35;;;;;;;55.83;10.57;;;23.90;39.10;;;;;;4993749;28;20068;-79
2024/03/30 12:35:01;;;;;;;47.95;8.93;;;24.00;37.90;;;;;;5011246;28;20034;-79
2024/03/30 12:37:27;;;;;;;51.35;8.98;;;23.90;37.50;;;;;;5011021;28;20110;-80
2024/03/30 12:39:53;;;;;;;45.25;7.50;;;23.90;37.60;;;;;;5011437;28;20022;-80
2024/03/30 12:42:22;;;;;;;43.38;8.77;;;23.80;36.40;;;;;;5010113;28;20424;-79